createdAt,value
2018-08-22T00:00:25.964Z,0.00
2018-08-22T00:01:26.022Z,0.00
2018-08-22T00:02:26.015Z,0.00
2018-08-22T00:03:26.040Z,0.00
2018-08-22T00:04:26.067Z,0.00
2018-08-22T00:05:26.092Z,0.00
2018-08-22T00:06:26.125Z,0.00
2018-08-22T00:07:26.147Z,0.00
2018-08-22T00:08:26.172Z,0.00
2018-08-22T00:09:26.195Z,0.00
2018-08-22T00:10:26.220Z,0.00
2018-08-22T00:11:26.246Z,0.00
2018-08-22T00:12:26.272Z,0.00
2018-08-22T00:13:26.297Z,0.00
2018-08-22T00:14:26.328Z,0.00
2018-08-22T00:15:26.374Z,0.00
2018-08-22T00:16:26.375Z,0.00
2018-08-22T00:17:26.401Z,0.00
2018-08-22T00:18:26.425Z,0.00
2018-08-22T00:19:26.455Z,0.00
2018-08-22T00:20:26.480Z,0.00
2018-08-22T00:21:26.504Z,0.00
2018-08-22T00:22:26.559Z,0.00
2018-08-22T00:23:26.556Z,0.00
2018-08-22T00:24:26.579Z,0.00
2018-08-22T00:25:26.685Z,0.00
2018-08-22T00:26:26.630Z,0.00
2018-08-22T00:27:26.656Z,0.00
2018-08-22T00:28:26.681Z,0.00
2018-08-22T00:29:26.707Z,0.00
2018-08-22T00:30:26.770Z,0.00
2018-08-22T00:31:26.759Z,0.00
2018-08-22T00:32:26.785Z,0.00
2018-08-22T00:33:26.810Z,0.00
2018-08-22T00:34:26.835Z,0.00
2018-08-22T00:35:26.861Z,0.00
2018-08-22T00:36:26.887Z,0.00
2018-08-22T00:37:26.912Z,0.00
2018-08-22T00:38:26.938Z,0.00
2018-08-22T00:39:26.963Z,0.00
2018-08-22T00:40:26.989Z,0.00
2018-08-22T00:41:27.016Z,0.00
2018-08-22T00:42:27.039Z,0.00
2018-08-22T00:43:27.065Z,0.00
2018-08-22T00:44:27.092Z,0.00
2018-08-22T00:45:27.118Z,0.00
2018-08-22T00:46:27.143Z,0.00
2018-08-22T00:47:27.169Z,0.00
2018-08-22T00:48:27.194Z,0.00
2018-08-22T00:49:27.220Z,0.00
2018-08-22T00:50:27.246Z,0.00
2018-08-22T00:51:27.272Z,0.00
2018-08-22T00:52:27.298Z,0.00
2018-08-22T00:53:27.324Z,0.00
2018-08-22T00:54:27.349Z,0.00
2018-08-22T00:55:27.374Z,0.00
2018-08-22T00:56:27.400Z,0.00
2018-08-22T00:57:27.425Z,0.00
2018-08-22T00:58:27.452Z,0.00
2018-08-22T00:59:27.477Z,0.00
2018-08-22T01:00:27.503Z,0.00
2018-08-22T01:01:27.529Z,0.00
2018-08-22T01:02:27.564Z,0.00
2018-08-22T01:03:27.580Z,0.00
2018-08-22T01:04:27.605Z,0.00
2018-08-22T01:05:27.631Z,0.00
2018-08-22T01:06:27.657Z,0.00
2018-08-22T01:07:27.683Z,0.00
2018-08-22T01:08:27.713Z,0.00
2018-08-22T01:09:27.739Z,0.00
2018-08-22T01:10:27.759Z,0.00
2018-08-22T01:11:27.784Z,0.00
2018-08-22T01:12:27.811Z,0.00
2018-08-22T01:13:27.836Z,0.00
2018-08-22T01:14:27.862Z,0.00
2018-08-22T01:15:27.888Z,0.00
2018-08-22T01:16:27.914Z,0.00
2018-08-22T01:17:27.940Z,0.00
2018-08-22T01:18:27.964Z,0.00
2018-08-22T01:19:27.991Z,0.00
2018-08-22T01:20:28.019Z,0.00
2018-08-22T01:21:28.046Z,0.00
2018-08-22T01:22:28.067Z,0.00
2018-08-22T01:23:28.093Z,0.00
2018-08-22T01:24:28.118Z,0.00
2018-08-22T01:25:28.147Z,0.00
2018-08-22T01:26:28.170Z,0.00
2018-08-22T01:27:28.196Z,0.00
2018-08-22T01:28:28.221Z,0.00
2018-08-22T01:29:28.248Z,0.00
2018-08-22T01:30:28.272Z,0.00
2018-08-22T01:31:28.314Z,0.00
2018-08-22T01:32:28.324Z,0.00
2018-08-22T01:33:28.351Z,0.00
2018-08-22T01:34:28.375Z,0.00
2018-08-22T01:35:28.401Z,0.00
2018-08-22T01:36:28.427Z,0.00
2018-08-22T01:37:28.455Z,0.00
2018-08-22T01:38:28.478Z,0.00
2018-08-22T01:39:28.503Z,0.00
2018-08-22T01:40:28.529Z,0.00
2018-08-22T01:41:28.555Z,0.00
2018-08-22T01:42:28.580Z,0.00
2018-08-22T01:43:28.606Z,0.00
2018-08-22T01:44:28.634Z,0.00
2018-08-22T01:45:28.658Z,0.00
2018-08-22T01:46:28.683Z,0.00
2018-08-22T01:47:28.708Z,0.00
2018-08-22T01:48:28.737Z,0.00
2018-08-22T01:49:28.760Z,0.00
2018-08-22T01:50:28.785Z,0.00
2018-08-22T01:51:28.814Z,0.00
2018-08-22T01:52:28.837Z,0.00
2018-08-22T01:53:28.863Z,0.00
2018-08-22T01:54:28.917Z,0.00
2018-08-22T01:55:28.914Z,0.00
2018-08-22T01:56:28.940Z,0.00
2018-08-22T01:57:28.985Z,0.00
2018-08-22T01:58:28.991Z,0.00
2018-08-22T01:59:29.017Z,0.00
2018-08-22T02:00:29.042Z,0.00
2018-08-22T02:01:29.068Z,0.00
2018-08-22T02:02:29.094Z,0.00
2018-08-22T02:03:29.119Z,0.00
2018-08-22T02:04:29.145Z,0.00
2018-08-22T02:05:29.171Z,0.00
2018-08-22T02:06:29.199Z,0.00
2018-08-22T02:07:29.222Z,0.00
2018-08-22T02:08:29.247Z,0.00
2018-08-22T02:09:29.274Z,0.00
2018-08-22T02:10:29.309Z,0.00
2018-08-22T02:11:29.338Z,0.00
2018-08-22T02:12:29.350Z,0.00
2018-08-22T02:13:29.376Z,4.00
2018-08-22T02:14:29.401Z,4.00
2018-08-22T02:15:29.426Z,4.00
2018-08-22T02:16:29.453Z,4.00
2018-08-22T02:17:29.479Z,4.00
2018-08-22T02:18:29.503Z,0.00
2018-08-22T02:19:29.530Z,4.00
2018-08-22T02:20:29.555Z,4.00
2018-08-22T02:21:29.583Z,4.00
2018-08-22T02:22:29.606Z,4.00
2018-08-22T02:23:29.632Z,4.00
2018-08-22T02:24:29.658Z,4.00
2018-08-22T02:25:29.703Z,4.00
2018-08-22T02:26:29.710Z,4.00
2018-08-22T02:27:29.736Z,8.00
2018-08-22T02:28:29.762Z,8.00
2018-08-22T02:29:29.788Z,4.00
2018-08-22T02:30:29.813Z,8.00
2018-08-22T02:31:29.839Z,8.00
2018-08-22T02:32:29.914Z,8.00
2018-08-22T02:33:29.891Z,8.00
2018-08-22T02:34:29.916Z,8.00
2018-08-22T02:35:29.944Z,12.00
2018-08-22T02:36:29.966Z,8.00
2018-08-22T02:37:29.992Z,12.00
2018-08-22T02:38:30.047Z,12.00
2018-08-22T02:39:30.055Z,12.00
2018-08-22T02:40:30.069Z,12.00
2018-08-22T02:41:30.095Z,16.00
2018-08-22T02:42:30.133Z,16.00
2018-08-22T02:43:30.146Z,16.00
2018-08-22T02:44:30.191Z,20.00
2018-08-22T02:45:30.198Z,20.00
2018-08-22T02:46:30.223Z,24.00
2018-08-22T02:47:30.250Z,24.00
2018-08-22T02:48:30.275Z,36.00
2018-08-22T02:49:30.301Z,40.00
2018-08-22T02:50:30.325Z,48.00
2018-08-22T02:51:30.351Z,52.00
2018-08-22T02:52:30.377Z,60.00
2018-08-22T02:53:30.403Z,60.00
2018-08-22T02:54:30.428Z,60.00
2018-08-22T02:55:30.453Z,64.00
2018-08-22T02:56:30.505Z,56.00
2018-08-22T02:57:30.506Z,60.00
2018-08-22T02:58:30.530Z,60.00
2018-08-22T02:59:30.556Z,60.00
2018-08-22T03:00:30.582Z,64.00
2018-08-22T03:01:30.608Z,68.00
2018-08-22T03:02:30.633Z,76.00
2018-08-22T03:03:30.659Z,84.00
2018-08-22T03:04:30.689Z,92.00
2018-08-22T03:05:30.711Z,96.00
2018-08-22T03:06:30.735Z,124.00
2018-08-22T03:07:30.762Z,144.00
2018-08-22T03:08:30.787Z,148.00
2018-08-22T03:09:30.813Z,156.00
2018-08-22T03:10:30.867Z,152.00
2018-08-22T03:11:30.864Z,148.00
2018-08-22T03:12:30.890Z,148.00
2018-08-22T03:13:30.919Z,136.00
2018-08-22T03:14:30.942Z,132.00
2018-08-22T03:15:30.967Z,132.00
2018-08-22T03:16:30.993Z,132.00
2018-08-22T03:17:31.019Z,132.00
2018-08-22T03:18:31.046Z,128.00
2018-08-22T03:19:31.070Z,140.00
2018-08-22T03:20:31.095Z,172.00
2018-08-22T03:21:31.123Z,172.00
2018-08-22T03:22:31.146Z,152.00
2018-08-22T03:23:31.171Z,124.00
2018-08-22T03:24:31.202Z,124.00
2018-08-22T03:25:31.223Z,128.00
2018-08-22T03:26:31.250Z,148.00
2018-08-22T03:27:31.274Z,216.00
2018-08-22T03:28:31.309Z,264.00
2018-08-22T03:29:31.334Z,304.00
2018-08-22T03:30:31.351Z,284.00
2018-08-22T03:31:31.377Z,292.00
2018-08-22T03:32:31.403Z,292.00
2018-08-22T03:33:31.430Z,304.00
2018-08-22T03:34:31.454Z,296.00
2018-08-22T03:35:31.484Z,332.00
2018-08-22T03:36:31.539Z,316.00
2018-08-22T03:37:31.559Z,288.00
2018-08-22T03:38:31.557Z,252.00
2018-08-22T03:39:31.584Z,244.00
2018-08-22T03:40:31.612Z,232.00
2018-08-22T03:41:31.635Z,268.00
2018-08-22T03:42:31.662Z,284.00
2018-08-22T03:43:31.686Z,348.00
2018-08-22T03:44:31.711Z,432.00
2018-08-22T03:45:31.739Z,420.00
2018-08-22T03:46:31.763Z,328.00
2018-08-22T03:47:31.789Z,292.00
2018-08-22T03:48:31.816Z,292.00
2018-08-22T03:49:31.841Z,304.00
2018-08-22T03:50:31.866Z,352.00
2018-08-22T03:51:31.929Z,468.00
2018-08-22T03:52:31.918Z,600.00
2018-08-22T03:53:31.944Z,792.00
2018-08-22T03:54:31.968Z,960.00
2018-08-22T03:55:31.995Z,976.00
2018-08-22T03:56:32.021Z,976.00
2018-08-22T03:57:32.046Z,764.00
2018-08-22T03:58:32.091Z,848.00
2018-08-22T03:59:32.098Z,576.00
2018-08-22T04:00:32.124Z,472.00
2018-08-22T04:01:32.184Z,532.00
2018-08-22T04:02:32.175Z,648.00
2018-08-22T04:03:32.200Z,536.00
2018-08-22T04:04:32.226Z,588.00
2018-08-22T04:05:32.256Z,424.00
2018-08-22T04:06:32.278Z,452.00
2018-08-22T04:07:32.305Z,336.00
2018-08-22T04:08:32.332Z,280.00
2018-08-22T04:09:32.356Z,248.00
2018-08-22T04:10:32.382Z,232.00
2018-08-22T04:11:32.407Z,356.00
2018-08-22T04:12:32.433Z,404.00
2018-08-22T04:13:32.459Z,384.00
2018-08-22T04:14:32.485Z,264.00
2018-08-22T04:15:32.510Z,300.00
2018-08-22T04:16:32.537Z,296.00
2018-08-22T04:17:32.563Z,360.00
2018-08-22T04:18:32.632Z,236.00
2018-08-22T04:19:32.614Z,204.00
2018-08-22T04:20:32.640Z,204.00
2018-08-22T04:21:32.666Z,240.00
2018-08-22T04:22:32.692Z,236.00
2018-08-22T04:23:32.716Z,212.00
2018-08-22T04:24:32.742Z,208.00
2018-08-22T04:25:32.769Z,240.00
2018-08-22T04:26:32.794Z,256.00
2018-08-22T04:27:32.841Z,260.00
2018-08-22T04:28:32.845Z,276.00
2018-08-22T04:29:32.871Z,324.00
2018-08-22T04:30:32.896Z,528.00
2018-08-22T04:31:32.925Z,436.00
2018-08-22T04:32:32.951Z,292.00
2018-08-22T04:33:32.979Z,316.00
2018-08-22T04:34:33.000Z,288.00
2018-08-22T04:35:33.030Z,204.00
2018-08-22T04:36:33.053Z,172.00
2018-08-22T04:37:33.079Z,160.00
2018-08-22T04:38:33.121Z,168.00
2018-08-22T04:39:33.129Z,164.00
2018-08-22T04:40:33.156Z,168.00
2018-08-22T04:41:33.184Z,172.00
2018-08-22T04:42:33.207Z,184.00
2018-08-22T04:43:33.235Z,188.00
2018-08-22T04:44:33.258Z,200.00
2018-08-22T04:45:33.284Z,192.00
2018-08-22T04:46:33.309Z,184.00
2018-08-22T04:47:33.355Z,184.00
2018-08-22T04:48:33.362Z,208.00
2018-08-22T04:49:33.388Z,272.00
2018-08-22T04:50:33.413Z,280.00
2018-08-22T04:51:33.439Z,188.00
2018-08-22T04:52:33.482Z,168.00
2018-08-22T04:53:33.491Z,188.00
2018-08-22T04:54:33.516Z,156.00
2018-08-22T04:55:33.544Z,148.00
2018-08-22T04:56:33.568Z,144.00
2018-08-22T04:57:33.594Z,144.00
2018-08-22T04:58:33.619Z,144.00
2018-08-22T04:59:33.646Z,148.00
2018-08-22T05:00:33.671Z,152.00
2018-08-22T05:01:33.697Z,156.00
2018-08-22T05:02:33.748Z,160.00
2018-08-22T05:03:33.747Z,164.00
2018-08-22T05:04:33.774Z,156.00
2018-08-22T05:05:33.800Z,156.00
2018-08-22T05:06:33.827Z,160.00
2018-08-22T05:07:33.851Z,168.00
2018-08-22T05:08:33.877Z,184.00
2018-08-22T05:09:33.903Z,184.00
2018-08-22T05:10:33.928Z,196.00
2018-08-22T05:11:33.954Z,208.00
2018-08-22T05:12:33.980Z,240.00
2018-08-22T05:13:34.009Z,188.00
2018-08-22T05:14:34.031Z,184.00
2018-08-22T05:15:34.058Z,204.00
2018-08-22T05:16:34.084Z,312.00
2018-08-22T05:17:34.109Z,268.00
2018-08-22T05:18:34.134Z,220.00
2018-08-22T05:19:34.169Z,204.00
2018-08-22T05:20:34.186Z,204.00
2018-08-22T05:21:34.212Z,248.00
2018-08-22T05:22:34.238Z,236.00
2018-08-22T05:23:34.263Z,216.00
2018-08-22T05:24:34.336Z,248.00
2018-08-22T05:25:34.316Z,256.00
2018-08-22T05:26:34.340Z,256.00
2018-08-22T05:27:34.366Z,260.00
2018-08-22T05:28:34.392Z,260.00
2018-08-22T05:29:34.419Z,308.00
2018-08-22T05:30:34.444Z,360.00
2018-08-22T05:31:34.469Z,284.00
2018-08-22T05:32:34.497Z,416.00
2018-08-22T05:33:34.527Z,384.00
2018-08-22T05:34:34.546Z,416.00
2018-08-22T05:35:34.573Z,344.00
2018-08-22T05:36:34.599Z,356.00
2018-08-22T05:37:34.625Z,292.00
2018-08-22T05:38:34.649Z,256.00
2018-08-22T05:39:34.713Z,292.00
2018-08-22T05:40:34.778Z,328.00
2018-08-22T05:41:34.727Z,320.00
2018-08-22T05:42:34.752Z,324.00
2018-08-22T05:43:34.779Z,332.00
2018-08-22T05:44:34.807Z,368.00
2018-08-22T05:45:34.831Z,416.00
2018-08-22T05:46:34.856Z,464.00
2018-08-22T05:47:34.881Z,524.00
2018-08-22T05:48:34.909Z,560.00
2018-08-22T05:49:34.935Z,544.00
2018-08-22T05:50:34.960Z,544.00
2018-08-22T05:51:34.985Z,564.00
2018-08-22T05:52:35.013Z,492.00
2018-08-22T05:53:35.037Z,336.00
2018-08-22T05:54:35.064Z,288.00
2018-08-22T05:55:35.089Z,288.00
2018-08-22T05:56:35.115Z,288.00
2018-08-22T05:57:35.155Z,292.00
2018-08-22T05:58:35.166Z,304.00
2018-08-22T05:59:35.192Z,304.00
2018-08-22T06:00:35.219Z,300.00
2018-08-22T06:01:35.245Z,296.00
2018-08-22T06:02:35.269Z,264.00
2018-08-22T06:03:35.302Z,244.00
2018-08-22T06:04:35.322Z,220.00
2018-08-22T06:05:35.348Z,196.00
2018-08-22T06:06:35.376Z,184.00
2018-08-22T06:07:35.399Z,208.00
2018-08-22T06:08:35.432Z,192.00
2018-08-22T06:09:35.451Z,192.00
2018-08-22T06:10:35.476Z,216.00
2018-08-22T06:11:35.502Z,256.00
2018-08-22T06:12:35.532Z,288.00
2018-08-22T06:13:35.554Z,384.00
2018-08-22T06:14:35.580Z,472.00
2018-08-22T06:15:35.618Z,492.00
2018-08-22T06:16:35.632Z,492.00
2018-08-22T06:17:35.659Z,520.00
2018-08-22T06:18:35.685Z,520.00
2018-08-22T06:19:35.710Z,512.00
2018-08-22T06:20:35.737Z,500.00
2018-08-22T06:21:35.761Z,492.00
2018-08-22T06:22:35.787Z,476.00
2018-08-22T06:23:35.813Z,468.00
2018-08-22T06:24:35.839Z,452.00
2018-08-22T06:25:36.021Z,440.00
2018-08-22T06:26:35.890Z,428.00
2018-08-22T06:27:35.916Z,412.00
2018-08-22T06:28:35.944Z,396.00
2018-08-22T06:29:35.969Z,380.00
2018-08-22T06:30:36.026Z,364.00
2018-08-22T06:31:36.020Z,352.00
2018-08-22T06:32:36.048Z,332.00
2018-08-22T06:33:36.072Z,316.00
2018-08-22T06:34:36.097Z,296.00
2018-08-22T06:35:36.124Z,284.00
2018-08-22T06:36:36.155Z,272.00
2018-08-22T06:37:36.217Z,256.00
2018-08-22T06:38:36.204Z,240.00
2018-08-22T06:39:36.228Z,224.00
2018-08-22T06:40:36.256Z,212.00
2018-08-22T06:41:36.303Z,208.00
2018-08-22T06:42:36.305Z,196.00
2018-08-22T06:43:36.370Z,196.00
2018-08-22T06:44:36.360Z,192.00
2018-08-22T06:45:36.383Z,188.00
2018-08-22T06:46:36.411Z,180.00
2018-08-22T06:47:36.434Z,180.00
2018-08-22T06:48:36.463Z,180.00
2018-08-22T06:49:36.510Z,188.00
2018-08-22T06:50:36.512Z,184.00
2018-08-22T06:51:36.538Z,180.00
2018-08-22T06:52:36.591Z,180.00
2018-08-22T06:53:36.608Z,184.00
2018-08-22T06:54:36.617Z,184.00
2018-08-22T06:55:36.640Z,176.00
2018-08-22T06:56:36.667Z,172.00
2018-08-22T06:57:36.693Z,176.00
2018-08-22T06:58:36.729Z,172.00
2018-08-22T06:59:36.744Z,168.00
2018-08-22T07:00:36.771Z,164.00
2018-08-22T07:01:36.811Z,156.00
2018-08-22T07:02:36.823Z,156.00
2018-08-22T07:03:36.847Z,152.00
2018-08-22T07:04:36.873Z,152.00
2018-08-22T07:05:36.903Z,152.00
2018-08-22T07:06:36.927Z,148.00
2018-08-22T07:07:36.952Z,144.00
2018-08-22T07:08:36.978Z,148.00
2018-08-22T07:09:37.004Z,148.00
2018-08-22T07:10:37.050Z,144.00
2018-08-22T07:11:37.054Z,144.00
2018-08-22T07:12:37.081Z,140.00
2018-08-22T07:13:37.106Z,144.00
2018-08-22T07:14:37.132Z,144.00
2018-08-22T07:15:37.159Z,148.00
2018-08-22T07:16:37.187Z,144.00
2018-08-22T07:17:37.213Z,148.00
2018-08-22T07:18:37.240Z,148.00
2018-08-22T07:19:37.261Z,144.00
2018-08-22T07:20:37.325Z,148.00
2018-08-22T07:21:37.316Z,148.00
2018-08-22T07:22:37.339Z,152.00
2018-08-22T07:23:37.367Z,156.00
2018-08-22T07:24:37.409Z,156.00
2018-08-22T07:25:37.417Z,152.00
2018-08-22T07:26:37.443Z,148.00
2018-08-22T07:27:37.468Z,148.00
2018-08-22T07:28:37.494Z,148.00
2018-08-22T07:29:37.535Z,152.00
2018-08-22T07:30:37.546Z,152.00
2018-08-22T07:31:37.572Z,148.00
2018-08-22T07:32:37.599Z,152.00
2018-08-22T07:33:37.626Z,152.00
2018-08-22T07:34:37.649Z,152.00
2018-08-22T07:35:37.679Z,148.00
2018-08-22T07:36:37.702Z,152.00
2018-08-22T07:37:37.728Z,152.00
2018-08-22T07:38:37.753Z,152.00
2018-08-22T07:39:37.805Z,160.00
2018-08-22T07:40:37.805Z,156.00
2018-08-22T07:41:37.832Z,156.00
2018-08-22T07:42:37.857Z,160.00
2018-08-22T07:43:37.886Z,156.00
2018-08-22T07:44:37.911Z,160.00
2018-08-22T07:45:37.935Z,160.00
2018-08-22T07:46:37.989Z,160.00
2018-08-22T07:47:37.986Z,156.00
2018-08-22T07:48:38.015Z,156.00
2018-08-22T07:49:38.038Z,156.00
2018-08-22T07:50:38.067Z,156.00
2018-08-22T07:51:38.089Z,156.00
2018-08-22T07:52:38.116Z,156.00
2018-08-22T07:53:38.141Z,160.00
2018-08-22T07:54:38.172Z,156.00
2018-08-22T07:55:38.192Z,156.00
2018-08-22T07:56:38.221Z,156.00
2018-08-22T07:57:38.256Z,156.00
2018-08-22T07:58:38.269Z,160.00
2018-08-22T07:59:38.296Z,156.00
2018-08-22T08:00:38.360Z,156.00
2018-08-22T08:01:38.356Z,156.00
2018-08-22T08:02:38.414Z,156.00
2018-08-22T08:03:38.399Z,156.00
2018-08-22T08:04:38.425Z,156.00
2018-08-22T08:05:38.452Z,152.00
2018-08-22T08:06:38.498Z,156.00
2018-08-22T08:07:38.503Z,156.00
2018-08-22T08:08:38.614Z,156.00
2018-08-22T08:09:38.555Z,156.00
2018-08-22T08:10:38.582Z,156.00
2018-08-22T08:11:38.605Z,160.00
2018-08-22T08:12:38.631Z,160.00
2018-08-22T08:13:38.666Z,156.00
2018-08-22T08:14:38.700Z,156.00
2018-08-22T08:15:38.709Z,156.00
2018-08-22T08:16:38.736Z,156.00
2018-08-22T08:17:38.797Z,156.00
2018-08-22T08:18:38.790Z,156.00
2018-08-22T08:19:38.812Z,156.00
2018-08-22T08:20:38.838Z,156.00
2018-08-22T08:21:38.865Z,156.00
2018-08-22T08:22:38.889Z,156.00
2018-08-22T08:23:38.916Z,156.00
2018-08-22T08:24:38.944Z,156.00
2018-08-22T08:25:38.969Z,156.00
2018-08-22T08:26:38.993Z,160.00
2018-08-22T08:27:39.018Z,160.00
2018-08-22T08:28:39.066Z,164.00
2018-08-22T08:29:39.070Z,164.00
2018-08-22T08:30:39.208Z,164.00
2018-08-22T08:31:39.159Z,160.00
2018-08-22T08:32:39.147Z,160.00
2018-08-22T08:33:39.175Z,156.00
2018-08-22T08:34:39.200Z,156.00
2018-08-22T08:35:39.228Z,156.00
2018-08-22T08:36:39.251Z,156.00
2018-08-22T08:37:39.276Z,156.00
2018-08-22T08:38:39.304Z,156.00
2018-08-22T08:39:39.328Z,156.00
2018-08-22T08:40:39.357Z,156.00
2018-08-22T08:41:39.513Z,156.00
2018-08-22T08:42:39.404Z,156.00
2018-08-22T08:43:39.430Z,160.00
2018-08-22T08:44:39.456Z,156.00
2018-08-22T08:45:39.484Z,152.00
2018-08-22T08:46:39.507Z,152.00
2018-08-22T08:47:39.534Z,152.00
2018-08-22T08:48:39.571Z,152.00
2018-08-22T08:49:39.695Z,152.00
2018-08-22T08:50:39.612Z,152.00
2018-08-22T08:51:39.638Z,152.00
2018-08-22T08:52:39.667Z,152.00
2018-08-22T08:53:39.688Z,152.00
2018-08-22T08:54:39.744Z,152.00
2018-08-22T08:55:39.740Z,156.00
2018-08-22T08:56:39.768Z,152.00
2018-08-22T08:57:39.791Z,156.00
2018-08-22T08:58:39.823Z,160.00
2018-08-22T08:59:39.844Z,168.00
2018-08-22T09:00:39.878Z,152.00
2018-08-22T09:01:39.894Z,184.00
2018-08-22T09:02:39.919Z,180.00
2018-08-22T09:03:39.946Z,180.00
2018-08-22T09:04:39.972Z,176.00
2018-08-22T09:05:39.997Z,172.00
2018-08-22T09:06:40.127Z,172.00
2018-08-22T09:07:40.047Z,168.00
2018-08-22T09:08:40.074Z,168.00
2018-08-22T09:09:41.688Z,168.00
2018-08-22T09:10:40.134Z,168.00
2018-08-22T09:11:40.150Z,172.00
2018-08-22T09:12:40.180Z,172.00
2018-08-22T09:13:40.206Z,172.00
2018-08-22T09:14:40.230Z,168.00
2018-08-22T09:15:40.272Z,172.00
2018-08-22T09:16:40.281Z,176.00
2018-08-22T09:17:40.335Z,176.00
2018-08-22T09:18:40.332Z,176.00
2018-08-22T09:19:40.357Z,180.00
2018-08-22T09:20:40.382Z,180.00
2018-08-22T09:21:40.408Z,180.00
2018-08-22T09:22:40.451Z,184.00
2018-08-22T09:23:40.459Z,184.00
2018-08-22T09:24:40.485Z,188.00
2018-08-22T09:25:40.517Z,192.00
2018-08-22T09:26:40.536Z,196.00
2018-08-22T09:27:40.563Z,200.00
2018-08-22T09:28:40.606Z,208.00
2018-08-22T09:29:40.626Z,204.00
2018-08-22T09:30:40.641Z,208.00
2018-08-22T09:31:40.667Z,200.00
2018-08-22T09:32:40.693Z,164.00
2018-08-22T09:33:40.766Z,132.00
2018-08-22T09:34:40.742Z,196.00
2018-08-22T09:35:40.769Z,200.00
2018-08-22T09:36:40.795Z,204.00
2018-08-22T09:37:40.820Z,132.00
2018-08-22T09:38:40.845Z,144.00
2018-08-22T09:39:40.910Z,208.00
2018-08-22T09:40:40.898Z,208.00
2018-08-22T09:41:40.923Z,200.00
2018-08-22T09:42:40.948Z,200.00
2018-08-22T09:43:40.987Z,200.00
2018-08-22T09:44:41.001Z,204.00
2018-08-22T09:45:41.026Z,200.00
2018-08-22T09:46:41.111Z,196.00
2018-08-22T09:47:41.092Z,204.00
2018-08-22T09:48:41.106Z,208.00
2018-08-22T09:49:41.156Z,216.00
2018-08-22T09:50:41.201Z,228.00
2018-08-22T09:51:41.180Z,232.00
2018-08-22T09:52:41.208Z,228.00
2018-08-22T09:53:41.232Z,192.00
2018-08-22T09:54:41.284Z,220.00
2018-08-22T09:55:41.284Z,212.00
2018-08-22T09:56:41.310Z,168.00
2018-08-22T09:57:41.336Z,124.00
2018-08-22T09:58:41.362Z,156.00
2018-08-22T09:59:41.386Z,196.00
2018-08-22T10:00:41.435Z,192.00
2018-08-22T10:01:41.441Z,188.00
2018-08-22T10:02:41.464Z,192.00
2018-08-22T10:03:41.490Z,204.00
2018-08-22T10:04:41.517Z,160.00
2018-08-22T10:05:41.552Z,216.00
2018-08-22T10:06:41.662Z,216.00
2018-08-22T10:07:41.593Z,216.00
2018-08-22T10:08:41.627Z,212.00
2018-08-22T10:09:41.645Z,212.00
2018-08-22T10:10:41.670Z,212.00
2018-08-22T10:11:41.699Z,212.00
2018-08-22T10:12:41.722Z,212.00
2018-08-22T10:13:41.791Z,208.00
2018-08-22T10:14:41.784Z,200.00
2018-08-22T10:15:41.798Z,196.00
2018-08-22T10:16:41.825Z,188.00
2018-08-22T10:17:41.851Z,180.00
2018-08-22T10:18:41.876Z,180.00
2018-08-22T10:19:41.964Z,176.00
2018-08-22T10:20:41.928Z,180.00
2018-08-22T10:21:41.960Z,180.00
2018-08-22T10:22:41.980Z,188.00
2018-08-22T10:23:42.005Z,196.00
2018-08-22T10:24:42.031Z,200.00
2018-08-22T10:25:42.060Z,204.00
2018-08-22T10:26:42.166Z,204.00
2018-08-22T10:27:42.108Z,200.00
2018-08-22T10:28:42.135Z,200.00
2018-08-22T10:29:42.164Z,200.00
2018-08-22T10:30:42.185Z,204.00
2018-08-22T10:31:42.211Z,200.00
2018-08-22T10:32:42.328Z,192.00
2018-08-22T10:33:42.263Z,192.00
2018-08-22T10:34:42.288Z,188.00
2018-08-22T10:35:42.315Z,184.00
2018-08-22T10:36:42.340Z,188.00
2018-08-22T10:37:42.366Z,184.00
2018-08-22T10:38:42.392Z,192.00
2018-08-22T10:39:42.421Z,192.00
2018-08-22T10:40:42.443Z,132.00
2018-08-22T10:41:42.544Z,200.00
2018-08-22T10:42:42.530Z,200.00
2018-08-22T10:43:42.520Z,200.00
2018-08-22T10:44:42.546Z,200.00
2018-08-22T10:45:42.572Z,196.00
2018-08-22T10:46:42.597Z,196.00
2018-08-22T10:47:42.623Z,200.00
2018-08-22T10:48:42.648Z,200.00
2018-08-22T10:49:42.675Z,204.00
2018-08-22T10:50:42.800Z,200.00
2018-08-22T10:51:42.766Z,188.00
2018-08-22T10:52:42.751Z,136.00
2018-08-22T10:53:42.777Z,132.00
2018-08-22T10:54:42.802Z,124.00
2018-08-22T10:55:42.850Z,116.00
2018-08-22T10:56:42.854Z,120.00
2018-08-22T10:57:42.879Z,176.00
2018-08-22T10:58:42.908Z,180.00
2018-08-22T10:59:42.930Z,184.00
2018-08-22T11:00:42.957Z,132.00
2018-08-22T11:01:42.982Z,116.00
2018-08-22T11:02:43.032Z,148.00
2018-08-22T11:03:43.034Z,144.00
2018-08-22T11:04:43.059Z,172.00
2018-08-22T11:05:43.083Z,172.00
2018-08-22T11:06:43.142Z,176.00
2018-08-22T11:07:43.135Z,172.00
2018-08-22T11:08:43.160Z,104.00
2018-08-22T11:09:43.209Z,116.00
2018-08-22T11:10:43.212Z,104.00
2018-08-22T11:11:43.237Z,104.00
2018-08-22T11:12:43.262Z,160.00
2018-08-22T11:13:43.288Z,112.00
2018-08-22T11:14:43.315Z,136.00
2018-08-22T11:15:43.410Z,176.00
2018-08-22T11:16:43.367Z,180.00
2018-08-22T11:17:43.390Z,180.00
2018-08-22T11:18:43.447Z,180.00
2018-08-22T11:19:43.469Z,176.00
2018-08-22T11:20:43.468Z,180.00
2018-08-22T11:21:43.492Z,180.00
2018-08-22T11:22:43.518Z,184.00
2018-08-22T11:23:43.545Z,192.00
2018-08-22T11:24:43.572Z,192.00
2018-08-22T11:25:43.630Z,196.00
2018-08-22T11:26:43.620Z,192.00
2018-08-22T11:27:43.647Z,196.00
2018-08-22T11:28:43.671Z,200.00
2018-08-22T11:29:43.698Z,200.00
2018-08-22T11:30:43.722Z,212.00
2018-08-22T11:31:43.756Z,216.00
2018-08-22T11:32:43.775Z,220.00
2018-08-22T11:33:43.799Z,220.00
2018-08-22T11:34:43.826Z,220.00
2018-08-22T11:35:43.850Z,228.00
2018-08-22T11:36:43.902Z,232.00
2018-08-22T11:37:43.902Z,232.00
2018-08-22T11:38:43.926Z,232.00
2018-08-22T11:39:43.952Z,240.00
2018-08-22T11:40:43.979Z,248.00
2018-08-22T11:41:44.044Z,240.00
2018-08-22T11:42:44.030Z,196.00
2018-08-22T11:43:44.055Z,196.00
2018-08-22T11:44:44.081Z,160.00
2018-08-22T11:45:44.107Z,160.00
2018-08-22T11:46:44.161Z,160.00
2018-08-22T11:47:44.165Z,152.00
2018-08-22T11:48:44.184Z,220.00
2018-08-22T11:49:44.243Z,220.00
2018-08-22T11:50:44.234Z,216.00
2018-08-22T11:51:44.278Z,216.00
2018-08-22T11:52:44.286Z,220.00
2018-08-22T11:53:44.314Z,224.00
2018-08-22T11:54:44.337Z,212.00
2018-08-22T11:55:44.364Z,236.00
2018-08-22T11:56:44.389Z,232.00
2018-08-22T11:57:44.415Z,232.00
2018-08-22T11:58:44.439Z,232.00
2018-08-22T11:59:44.506Z,240.00
2018-08-22T12:00:44.493Z,256.00
2018-08-22T12:01:44.590Z,256.00
2018-08-22T12:02:44.572Z,256.00
2018-08-22T12:03:44.568Z,244.00
2018-08-22T12:04:44.597Z,204.00
2018-08-22T12:05:44.624Z,160.00
2018-08-22T12:06:44.655Z,208.00
2018-08-22T12:07:44.671Z,204.00
2018-08-22T12:08:44.700Z,168.00
2018-08-22T12:09:44.725Z,160.00
2018-08-22T12:10:44.748Z,124.00
2018-08-22T12:11:44.774Z,124.00
2018-08-22T12:12:44.799Z,120.00
2018-08-22T12:13:44.826Z,132.00
2018-08-22T12:14:44.850Z,148.00
2018-08-22T12:15:44.877Z,196.00
2018-08-22T12:16:44.905Z,196.00
2018-08-22T12:17:44.928Z,192.00
2018-08-22T12:18:44.954Z,188.00
2018-08-22T12:19:44.990Z,188.00
2018-08-22T12:20:45.005Z,196.00
2018-08-22T12:21:45.050Z,172.00
2018-08-22T12:22:45.056Z,136.00
2018-08-22T12:23:45.083Z,180.00
2018-08-22T12:24:45.108Z,144.00
2018-08-22T12:25:45.166Z,160.00
2018-08-22T12:26:45.162Z,132.00
2018-08-22T12:27:45.185Z,192.00
2018-08-22T12:28:45.212Z,188.00
2018-08-22T12:29:45.237Z,188.00
2018-08-22T12:30:45.263Z,192.00
2018-08-22T12:31:45.289Z,196.00
2018-08-22T12:32:45.316Z,192.00
2018-08-22T12:33:45.340Z,188.00
2018-08-22T12:34:45.365Z,184.00
2018-08-22T12:35:45.392Z,176.00
2018-08-22T12:36:45.417Z,180.00
2018-08-22T12:37:45.496Z,180.00
2018-08-22T12:38:45.469Z,176.00
2018-08-22T12:39:45.495Z,180.00